Stations météo

réclame
Mon MeteoGroup
Mont Aigoual, France (7560): Température de l'air & dewpoint: 15.01.2019 17:00:00 - 21.01.2019 17:00:00 (CET)Mont Aigoual, France (7560): Vitesse du vent & gusts: 15.01.2019 17:00:00 - 21.01.2019 17:00:00 (CET)Mont Aigoual, France (7560): Direction du vent: 15.01.2019 17:00:00 - 21.01.2019 17:00:00 (CET)Mont Aigoual, France (7560): visibility: 15.01.2019 17:00:00 - 21.01.2019 17:00:00 (CET)Mont Aigoual, France (7560): Quantités de précipitations: 15.01.2019 17:00:00 - 21.01.2019 17:00:00 (CET)
Date & Time tt [°C] td [°C] ff [km/h] ff [knt] fx [km/h] fx [knt] dd vv [km] rr [mm]
21.01.2019 17:00:00 -5,0 -5,4 47 26 64 35 N 20 0,0
21.01.2019 16:00:00 -4,9 -5,4 41 22 62 33 N 20 0,0
21.01.2019 15:00:00 -4,6 -5,0 44 24 59 32 N 20 0,0
21.01.2019 14:00:00 -4,1 -4,5 45 24 59 32 N 20 0,0
21.01.2019 13:00:00 -3,9 -4,2 40 22 59 32 N 20 0,0
21.01.2019 12:00:00 -4,0 -4,3 26 14 42 23 NNW 0,5 0,0
21.01.2019 11:00:00 -4,2 -4,5 21 12 33 18 NNW 0,2 0,0
21.01.2019 10:00:00 -4,3 -4,6 28 15 45 25 N 0,2 0,0
21.01.2019 09:00:00 -4,6 -4,9 33 18 42 23 N 0,3 0,0
21.01.2019 08:00:00 -4,7 -5,0 23 13 37 20 NNW 0,2 0,0
21.01.2019 07:00:00 -4,6 -4,9 23 12 56 30 N 0,2 0,0
21.01.2019 06:00:00 -4,2 -4,5 38 21 50 27 N 0,2 0,0
21.01.2019 05:00:00 -3,9 -4,2 32 17 50 27 N 0,4 0,0
21.01.2019 04:00:00 -3,3 -3,4 39 21 55 30 N 0,1 0,0
21.01.2019 03:00:00 -3,4 -3,4 32 17 66 36 NNW 0,1 0,0
21.01.2019 02:00:00 -3,5 -3,5 31 17 42 23 NW 0,1 0,0
21.01.2019 01:00:00 -3,3 -3,3 26 14 55 30 NW 0,1 0,0
21.01.2019 00:00:00 -3,4 -3,4 29 16 39 21 NW 0,1 0,0
20.01.2019 23:00:00 -3,6 -3,7 22 12 35 19 NW 0,1 0,0
20.01.2019 22:00:00 -3,3 -3,4 27 15 43 23 NW 0,3 0,0
20.01.2019 21:00:00 -3,1 -3,1 32 18 42 23 NNW 0,2 0,0
20.01.2019 20:00:00 -2,9 -3,0 31 17 39 21 NW 0,2 0,0
20.01.2019 19:00:00 -2,7 -3,1 24 13 34 18 NW 2,9 0,0
20.01.2019 18:00:00 -2,5 -3,8 28 15 38 21 NNW 20 0,0
20.01.2019 17:00:00 -2,0 -2,8 27 14 39 21 NNW 20 0,0
20.01.2019 16:00:00 -1,8 -2,2 21 11 39 21 N 17 0,0
20.01.2019 15:00:00 -1,8 -2,2 19 10 35 19 NNW 4,1 0,0
20.01.2019 14:00:00 -2,2 -2,6 21 11 31 17 N 20 0,0
20.01.2019 13:00:00 -2,1 -2,2 20 11 28 15 NW 19 0,0
20.01.2019 12:00:00 -2,1 -2,1 16 9 22 12 NW 0,3 0,0
20.01.2019 11:00:00 -1,8 -1,8 5 3 21 12 SW 0,1 0,0
20.01.2019 10:00:00 -2,2 -2,2 10 6 21 11 SW 1,0 0,0
20.01.2019 09:00:00 -2,8 -2,9 11 6 25 13 S 0,1 0,0
20.01.2019 08:00:00 -2,6 -2,6 21 11 34 19 SSW 0,1 0,0
20.01.2019 07:00:00 -2,8 -2,8 18 10 50 27 SW 0,1 0,0
20.01.2019 06:00:00 -3,0 -3,1 24 13 40 21 S 0,1 0,0
20.01.2019 05:00:00 -3,2 -3,2 27 15 43 23 S 0,1 0,2
20.01.2019 04:00:00 -3,4 -3,5 29 16 45 24 S 0,1 0,0
20.01.2019 03:00:00 -3,6 -4,6 22 12 39 21 S 17 0,0
20.01.2019 02:00:00 -3,8 -6,1 31 17 44 24 S 20 0,0
20.01.2019 01:00:00 -4,2 -8,3 29 16 35 19 S 20 0,0
20.01.2019 00:00:00 -3,7 -5,4 31 17 41 22 S 20 0,0
19.01.2019 23:00:00 -3,0 -3,4 28 15 40 22 S 20 0,0
19.01.2019 22:00:00 -2,9 -3,0 26 14 34 18 S 0,1 0,0
19.01.2019 21:00:00 -3,3 -4,6 19 10 29 16 S 20 0,0
19.01.2019 20:00:00 -2,4 -3,1 15 8 19 11 S 20 0,0
19.01.2019 19:00:00 -2,5 -4,1 12 7 16 9 S 20 0,0
19.01.2019 18:00:00 -1,7 -3,6 5 3 12 6 SSW 20 0,0
19.01.2019 17:00:00 -1,4 -3,1 0 0 9 5 N 20 0,0
19.01.2019 16:00:00 -1,3 -3,2 4 2 17 9 WNW 20 0,0
19.01.2019 15:00:00 -1,0 -4,0 8 5 19 11 NW 20 0,0
19.01.2019 14:00:00 -0,6 -5,4 4 2 18 10 N 20 0,0
19.01.2019 13:00:00 -0,9 -6,1 12 7 23 12 NW 20 0,0
19.01.2019 12:00:00 -1,1 -6,3 6 3 19 10 NW 20 0,0
19.01.2019 11:00:00 -2,2 -7,1 8 5 18 10 NNW 20 0,0
19.01.2019 10:00:00 -3,1 -7,8 14 8 31 17 N 20 0,0
19.01.2019 09:00:00 -4,2 -8,1 22 12 40 22 N 20 0,0
19.01.2019 08:00:00 -4,3 -7,6 28 15 46 25 NNW 20 0,0
19.01.2019 07:00:00 -4,0 -7,3 35 19 56 30 NNW 20 0,0
19.01.2019 06:00:00 -4,4 -7,5 45 24 55 30 NNW 20 0,0
19.01.2019 05:00:00 -6,0 -9,7 36 20 46 25 NNW 20 0,0
19.01.2019 04:00:00 -5,1 -12,8 33 18 45 24 N 20 0,0
19.01.2019 03:00:00 -4,8 -13,9 34 18 51 28 N 20 0,0
19.01.2019 02:00:00 -4,5 -14,4 36 19 54 29 NNW 20 0,0
19.01.2019 01:00:00 -5,0 -16,8 43 23 58 31 NNW 20 0,0
19.01.2019 00:00:00 -5,7 -12,4 43 23 61 33 NNW 20 0,0
18.01.2019 23:00:00 -6,2 -9,6 46 25 57 31 NNW 20 0,0
18.01.2019 22:00:00 -6,7 -8,4 48 26 56 30 N 20 0,0
18.01.2019 21:00:00 -6,9 -8,3 46 25 62 34 N 20 0,0
18.01.2019 20:00:00 -6,7 -7,8 48 26 69 37 NNW 20 0,0
18.01.2019 19:00:00 -6,2 -7,0 44 24 72 39 NNW 20 0,0
18.01.2019 18:00:00 -5,4 -5,9 48 26 67 36 NW 18 0,0
18.01.2019 17:00:00 -4,9 -5,6 31 17 49 26 N 20 0,0
18.01.2019 16:00:00 -3,9 -4,4 22 12 44 24 N 20 0,0
18.01.2019 15:00:00 -3,2 -3,5 22 12 54 29 N 20 0,0
18.01.2019 14:00:00 -4,4 -4,8 35 19 72 39 NNW 20 0,0
18.01.2019 13:00:00 -4,6 -5,0 58 31 91 49 NNW 20 0,0
18.01.2019 12:00:00 -4,9 -5,3 39 21 63 34 NNW 19 0,0
18.01.2019 11:00:00 -5,0 -5,4 29 15 65 35 N 0,2 0,0
18.01.2019 10:00:00 -4,8 -5,1 28 15 101 55 NNW 0,1 0,0
18.01.2019 09:00:00 -4,9 -5,3 38 20 90 49 N 0,2 0,0
18.01.2019 08:00:00 -4,7 -5,0 31 17 61 33 N 0,1 0,0
18.01.2019 07:00:00 -4,8 -5,1 38 20 93 50 NNW 0,1 0,0
18.01.2019 06:00:00 -5,2 -5,5 41 22 76 41 NNW 0,1 0,0
18.01.2019 05:00:00 -5,3 -5,6 46 25 89 48 NNW 0,1 0,0
18.01.2019 04:00:00 -5,8 -6,2 66 36 88 48 NNW 2,9 0,0
18.01.2019 03:00:00 -5,9 -6,4 65 35 94 51 NNW 12 0,0
18.01.2019 02:00:00 -5,5 -5,9 78 42 105 57 NNW 6 0,0
18.01.2019 01:00:00 -5,1 -5,5 74 40 100 54 NNW 0,8 0,0
18.01.2019 00:00:00 -4,8 -5,1 73 39 106 57 NNW 0,4 0,0
17.01.2019 23:00:00 -4,6 -4,9 72 39 122 66 NNW 0,6 0,0
17.01.2019 22:00:00 -4,1 -4,4 59 32 94 51 NNW 0,1 0,0
17.01.2019 21:00:00 -4,1 -4,4 60 32 87 47 NNW 0,6 0,0
17.01.2019 20:00:00 -3,7 -4,0 41 22 69 38 NNW 0,6 0,0
17.01.2019 19:00:00 -3,1 -3,2 36 19 69 37 NNW 0,1 0,0
17.01.2019 18:00:00 -2,8 -2,9 33 18 80 43 NNW 0,1 0,0
17.01.2019 17:00:00 -2,9 -3,0 59 32 99 54 NNW 0,8 0,0
17.01.2019 16:00:00 -2,5 -2,5 56 30 91 49 NNW 0,2 0,0
17.01.2019 15:00:00 -2,6 -2,7 62 33 84 45 NNW 8 0,0
17.01.2019 14:00:00 -2,5 -2,5 55 30 91 49 NNW 3,9 0,0
17.01.2019 13:00:00 -2,0 -2,0 54 29 83 45 NNW 0,2 0,0
17.01.2019 12:00:00 -1,2 -1,2 32 17 68 37 NNW - 0,0
17.01.2019 11:00:00 -0,7 -0,7 35 19 59 32 NW 0,1 0,0
17.01.2019 10:00:00 -0,6 -0,6 40 21 64 35 WNW 0,1 0,0
17.01.2019 09:00:00 -0,9 -0,9 41 22 61 33 WNW 0,1 0,0
17.01.2019 08:00:00 -1,0 -1,0 26 14 41 22 WNW 0,1 0,0
17.01.2019 07:00:00 -1,1 -1,1 26 14 40 21 WNW 0,1 0,0
17.01.2019 06:00:00 -0,9 -1,9 17 9 34 18 NNW 20 0,0
17.01.2019 05:00:00 -0,8 -1,1 25 14 38 21 WNW 20 0,0
17.01.2019 04:00:00 -1,0 -1,0 24 13 36 19 W 0,7 0,0
17.01.2019 03:00:00 -0,5 -0,5 19 11 32 18 W 0,1 0,0
17.01.2019 02:00:00 0,1 0,1 10 6 24 13 SSW 2,0 0,0
17.01.2019 01:00:00 0,4 0,4 18 10 27 15 S 0,1 0,0
17.01.2019 00:00:00 0,4 0,4 14 7 26 14 SSW 0,1 0,0
16.01.2019 23:00:00 0,7 0,7 21 11 35 19 S - 0,0
16.01.2019 22:00:00 0,8 0,8 30 16 39 21 SSE 0,1 0,0
16.01.2019 21:00:00 0,3 0,3 29 16 42 23 S 0,1 0,0
16.01.2019 20:00:00 0,0 0,0 34 19 44 24 S - 0,0
16.01.2019 19:00:00 -0,5 -0,5 32 17 48 26 S 0,1 0,0
16.01.2019 18:00:00 -0,9 -0,9 34 19 44 24 S 0,1 0,0
16.01.2019 17:00:00 -1,0 -1,3 29 16 41 22 S 0,2 0,0
16.01.2019 16:00:00 -0,3 -0,6 33 18 44 24 S 4,3 0,0
16.01.2019 15:00:00 -0,8 -0,8 33 18 48 26 S 0,1 0,0
16.01.2019 14:00:00 -0,7 -0,8 34 18 47 25 S 0,1 0,0
16.01.2019 13:00:00 -0,7 -1,3 34 18 50 27 S 1,8 0,0
16.01.2019 12:00:00 -1,3 -1,6 35 19 45 24 S 0,2 0,0
16.01.2019 11:00:00 -0,3 -3,0 32 17 39 21 S 20 0,0
16.01.2019 10:00:00 -0,8 -2,8 34 18 45 24 S 20 0,0
16.01.2019 09:00:00 -1,0 -4,5 27 15 37 20 S 20 0,0
16.01.2019 08:00:00 0,4 -9,6 26 14 31 17 S 20 0,0
16.01.2019 07:00:00 1,7 -8,4 20 11 29 16 S 20 0,0
16.01.2019 06:00:00 1,7 -10,2 22 12 30 16 S 20 0,0
16.01.2019 05:00:00 2,7 -10,6 21 11 27 14 S 20 0,0
16.01.2019 04:00:00 2,4 -11,2 14 8 19 10 S 20 0,0
16.01.2019 03:00:00 2,8 -11,5 6 3 14 8 S 20 0,0
16.01.2019 02:00:00 4,3 -16,2 11 6 21 11 WSW 20 0,0
16.01.2019 01:00:00 4,4 -17,3 8 4 12 7 WSW 20 0,0
16.01.2019 00:00:00 3,7 -15,6 2 1 7 4 SW 20 0,0
15.01.2019 23:00:00 3,9 -13,4 6 3 16 8 N 20 0,0
15.01.2019 22:00:00 4,2 -16,2 11 6 23 13 N 20 0,0
15.01.2019 21:00:00 4,2 -14,6 23 12 24 13 N 20 0,0
15.01.2019 20:00:00 3,8 -12,6 22 12 27 15 N 20 0,0
15.01.2019 19:00:00 3,7 -11,5 22 12 23 12 N 20 0,0
15.01.2019 18:00:00 3,5 -10,2 18 10 - - N 20 0,0
15.01.2019 17:00:00 3,4 -7,7 - - - - - 20 0,0

tt = Température de l'air
td = dewpoint
ff = Vitesse du vent
fx = gusts
dd = Direction du vent
vv = visibility
rr = Quantités de précipitations

stations d'obs. à proximité